Time;durP1;ratioP1;P1;durP2;ratioP2;P2;SDS_P1;SDS_P2;PMS_P1;PMS_P2;Temp;Humidity;BMP_temperature;BMP_pressure;BME280_temperature;BME280_humidity;BME280_pressure;Samples;Min_cycle;Max_cycle;Signal;HPM_P1;HPM_P2
2022/02/14 00:00:24;;;;;;;2.03;1.00;;;0.40;99.90;;;;;;5032380;28;20033;-72
2022/02/14 00:02:50;;;;;;;2.55;1.05;;;0.40;99.90;;;;;;5031959;28;20025;-72
2022/02/14 00:05:16;;;;;;;1.73;0.85;;;0.40;99.90;;;;;;5031785;28;20473;-72
2022/02/14 00:07:42;;;;;;;1.23;0.90;;;0.30;99.90;;;;;;5031781;28;20037;-72
2022/02/14 00:10:08;;;;;;;1.42;1.00;;;0.30;99.90;;;;;;5031692;28;20033;-72
2022/02/14 00:12:35;;;;;;;1.63;1.05;;;0.30;99.90;;;;;;5031357;28;20096;-72
2022/02/14 00:15:03;;;;;;;1.75;1.00;;;0.20;99.90;;;;;;5031913;28;20091;-72
2022/02/14 00:17:29;;;;;;;1.45;1.05;;;0.20;99.90;;;;;;5032080;28;20358;-72
2022/02/14 00:19:55;;;;;;;1.38;1.00;;;0.20;99.90;;;;;;5031914;28;20027;-72
2022/02/14 00:22:24;;;;;;;0.98;0.80;;;0.10;99.90;;;;;;5031949;28;20029;-72
2022/02/14 00:24:51;;;;;;;1.50;0.90;;;0.00;99.90;;;;;;5031713;28;20048;-72
2022/02/14 00:27:18;;;;;;;1.52;0.80;;;-0.10;99.90;;;;;;5031781;28;20033;-72
2022/02/14 00:29:44;;;;;;;1.83;0.90;;;-0.20;99.90;;;;;;5031614;28;20079;-72
2022/02/14 00:32:10;;;;;;;1.92;0.80;;;-0.20;99.90;;;;;;5031743;28;20029;-72
2022/02/14 00:34:35;;;;;;;2.40;0.98;;;-0.30;99.90;;;;;;5031747;28;20044;-71
2022/02/14 00:37:02;;;;;;;0.88;0.63;;;-0.30;99.90;;;;;;5031139;28;20046;-71
2022/02/14 00:39:28;;;;;;;2.53;0.80;;;-0.30;99.90;;;;;;5031660;28;20477;-71
2022/02/14 00:41:54;;;;;;;0.85;0.85;;;-0.30;99.90;;;;;;5031512;28;20022;-72
2022/02/14 00:44:19;;;;;;;1.17;0.80;;;-0.30;99.90;;;;;;5031510;28;20032;-72
2022/02/14 00:46:45;;;;;;;1.33;0.90;;;-0.40;99.90;;;;;;5031430;28;20033;-73
2022/02/14 00:49:11;;;;;;;0.80;0.73;;;-0.40;99.90;;;;;;5031309;28;20025;-72
2022/02/14 00:51:37;;;;;;;1.10;0.70;;;-0.40;99.90;;;;;;5031490;28;20042;-74
2022/02/14 00:54:02;;;;;;;1.23;0.70;;;-0.60;99.90;;;;;;5031718;28;20052;-72
2022/02/14 00:56:28;;;;;;;3.78;1.00;;;-0.70;99.90;;;;;;5031544;28;20037;-73
2022/02/14 00:58:54;;;;;;;1.80;1.00;;;-0.80;99.90;;;;;;5031772;28;20029;-73
2022/02/14 01:01:20;;;;;;;1.38;0.75;;;-0.70;99.90;;;;;;5031422;28;20025;-73
2022/02/14 01:03:46;;;;;;;1.08;0.73;;;-0.80;99.90;;;;;;5031725;28;20036;-73
2022/02/14 01:06:12;;;;;;;2.30;0.93;;;-0.80;99.90;;;;;;5031274;28;20021;-72
2022/02/14 01:08:37;;;;;;;1.70;1.02;;;-0.80;99.90;;;;;;5031597;28;20029;-73
2022/02/14 01:11:03;;;;;;;1.27;0.90;;;-0.80;99.90;;;;;;5031082;28;20073;-73
2022/02/14 01:13:29;;;;;;;1.48;0.90;;;-0.90;99.90;;;;;;5013529;28;20021;-72
2022/02/14 01:15:55;;;;;;;3.15;1.00;;;-0.90;99.90;;;;;;5031323;28;20088;-72
2022/02/14 01:18:21;;;;;;;2.33;0.95;;;-1.00;99.90;;;;;;5031071;28;20076;-72
2022/02/14 01:20:47;;;;;;;1.27;0.90;;;-1.00;99.90;;;;;;5031253;28;20081;-72
2022/02/14 01:23:13;;;;;;;2.22;0.88;;;-1.10;99.90;;;;;;5031213;28;20029;-72
2022/02/14 01:25:38;;;;;;;0.98;0.95;;;-1.20;99.90;;;;;;5033004;28;20463;-72
2022/02/14 01:28:04;;;;;;;1.30;0.82;;;-1.10;99.90;;;;;;5034607;28;20021;-72
2022/02/14 01:30:30;;;;;;;3.03;0.90;;;-1.20;99.90;;;;;;5034676;28;20037;-72
2022/02/14 01:32:58;;;;;;;1.83;0.88;;;-1.20;99.90;;;;;;5034666;28;20056;-72
2022/02/14 01:35:24;;;;;;;1.60;0.93;;;-1.30;99.90;;;;;;5034549;28;20014;-73
2022/02/14 01:37:50;;;;;;;0.68;0.68;;;-1.30;99.90;;;;;;5034377;28;20116;-73
2022/02/14 01:40:16;;;;;;;1.83;1.05;;;-1.40;99.90;;;;;;5034627;28;20030;-72
2022/02/14 01:42:42;;;;;;;1.85;1.33;;;-1.50;99.90;;;;;;5034441;28;20458;-73
2022/02/14 01:45:10;;;;;;;2.88;1.02;;;-1.50;99.90;;;;;;5034200;28;20544;-71
2022/02/14 01:47:36;;;;;;;0.88;0.82;;;-1.60;99.90;;;;;;5034572;28;20025;-72
2022/02/14 01:50:03;;;;;;;2.13;0.95;;;-1.60;99.90;;;;;;5034444;28;20061;-72
2022/02/14 01:52:31;;;;;;;2.92;1.00;;;-1.70;99.90;;;;;;5034526;28;20036;-72
2022/02/14 01:54:58;;;;;;;1.20;0.90;;;-1.70;99.90;;;;;;5034167;28;20057;-71
2022/02/14 01:57:25;;;;;;;1.15;0.80;;;-1.70;99.90;;;;;;5033998;28;20033;-71
2022/02/14 01:59:51;;;;;;;0.60;0.60;;;-1.70;99.90;;;;;;5034272;28;20040;-71
2022/02/14 02:02:16;;;;;;;1.02;0.95;;;-1.70;99.90;;;;;;5034045;28;20022;-71
2022/02/14 02:04:44;;;;;;;0.90;0.90;;;-1.80;99.90;;;;;;5034140;28;20543;-71
2022/02/14 02:07:11;;;;;;;2.15;0.90;;;-1.90;99.90;;;;;;5034040;28;20116;-71
2022/02/14 02:09:37;;;;;;;2.17;1.05;;;-2.00;99.90;;;;;;5034054;28;20113;-71
2022/02/14 02:14:55;;;;;;;1.60;0.85;;;-2.10;99.90;;;;;;5034295;28;20117;-72
2022/02/14 02:17:33;;;;;;;1.23;0.75;;;-2.20;99.90;;;;;;5034025;28;20037;-75
2022/02/14 02:20:00;;;;;;;1.73;0.90;;;-2.20;99.90;;;;;;5033810;28;20112;-75
2022/02/14 02:22:26;;;;;;;0.80;0.80;;;-2.20;99.90;;;;;;5033594;28;20358;-74
2022/02/14 02:53:55;;;;;;;1.75;1.00;;;-2.60;99.90;;;;;;5032643;28;20045;-74
2022/02/14 02:56:21;;;;;;;1.60;0.95;;;-2.60;99.90;;;;;;5033011;28;20033;-70
2022/02/14 02:58:47;;;;;;;1.10;0.90;;;-2.70;99.90;;;;;;5033013;28;20440;-71
2022/02/14 03:01:12;;;;;;;1.85;1.10;;;-2.70;99.90;;;;;;5032939;28;20033;-71
2022/02/14 03:37:18;;;;;;;0.80;0.80;;;-3.60;99.90;;;;;;6045254;22;20004;-72
2022/02/14 03:39:43;;;;;;;1.60;0.95;;;-3.60;99.90;;;;;;5029936;28;20067;-72
2022/02/14 03:42:09;;;;;;;1.02;0.90;;;-3.70;99.90;;;;;;5032574;28;20120;-72
2022/02/14 03:44:35;;;;;;;1.23;0.80;;;-3.70;99.90;;;;;;5032148;28;20441;-72
2022/02/14 03:47:00;;;;;;;1.15;1.05;;;-3.60;99.90;;;;;;5031716;28;20036;-72
2022/02/14 03:49:26;;;;;;;1.75;1.08;;;-3.70;99.90;;;;;;5031507;28;20022;-72
2022/02/14 03:51:52;;;;;;;0.90;0.90;;;-3.70;99.90;;;;;;5032359;28;20025;-72
2022/02/14 03:54:18;;;;;;;0.90;0.90;;;-3.70;99.90;;;;;;5032120;28;20519;-72
2022/02/14 03:56:43;;;;;;;3.40;1.00;;;-3.70;99.90;;;;;;5014289;28;20087;-72
2022/02/14 03:59:09;;;;;;;0.82;0.80;;;-3.80;99.90;;;;;;5032133;28;20101;-73
2022/02/14 04:01:35;;;;;;;2.28;0.93;;;-3.80;99.90;;;;;;5032122;28;20427;-75
2022/02/14 04:04:00;;;;;;;1.05;0.93;;;-3.90;99.90;;;;;;5031855;28;20084;-73
2022/02/14 04:06:26;;;;;;;1.73;1.00;;;-3.90;99.90;;;;;;5032125;28;20032;-73
2022/02/14 04:08:52;;;;;;;0.80;0.80;;;-3.90;99.90;;;;;;5014200;28;20052;-73
2022/02/14 04:11:18;;;;;;;1.52;1.10;;;-3.90;99.90;;;;;;5032037;28;20033;-73
2022/02/14 04:13:43;;;;;;;2.30;1.08;;;-3.90;99.90;;;;;;5031867;28;20037;-73
2022/02/14 04:16:09;;;;;;;0.80;0.80;;;-3.90;99.90;;;;;;5031983;28;20030;-73
2022/02/14 04:18:35;;;;;;;2.72;0.93;;;-4.00;99.90;;;;;;5031925;28;20342;-73
2022/02/14 04:21:00;;;;;;;1.00;1.00;;;-4.00;99.90;;;;;;5031886;28;20021;-73
2022/02/14 04:23:26;;;;;;;0.95;0.93;;;-4.10;99.90;;;;;;5032125;28;20033;-73
2022/02/14 04:25:54;;;;;;;0.93;0.93;;;-4.10;99.90;;;;;;5031613;28;20033;-73
2022/02/14 04:28:20;;;;;;;0.90;0.90;;;-4.10;99.90;;;;;;5031711;28;20039;-73
2022/02/14 04:30:46;;;;;;;1.00;1.00;;;-4.10;99.90;;;;;;5031550;28;20116;-72
2022/02/14 04:33:12;;;;;;;1.90;1.20;;;-4.10;99.90;;;;;;5031666;28;20040;-72
2022/02/14 04:35:37;;;;;;;1.45;0.98;;;-4.10;99.90;;;;;;5014009;28;20027;-72
2022/02/14 04:38:03;;;;;;;1.75;1.10;;;-4.10;99.90;;;;;;5031236;28;20049;-72
2022/02/14 04:40:31;;;;;;;0.80;0.80;;;-4.10;99.90;;;;;;5031890;28;20030;-72
2022/02/14 04:42:58;;;;;;;2.13;1.20;;;-4.10;99.90;;;;;;5031407;28;20022;-72
2022/02/14 04:45:24;;;;;;;1.00;0.88;;;-4.10;99.90;;;;;;5013928;28;20116;-72
2022/02/14 04:47:50;;;;;;;0.85;0.77;;;-4.10;99.90;;;;;;5031719;28;20033;-73
2022/02/14 04:50:16;;;;;;;1.10;1.00;;;-4.20;99.90;;;;;;5031372;28;20037;-72
2022/02/14 04:52:41;;;;;;;1.20;1.10;;;-4.20;99.90;;;;;;5031439;28;20061;-73
2022/02/14 04:55:08;;;;;;;1.08;1.02;;;-4.20;99.90;;;;;;5031592;28;20497;-74
2022/02/14 04:57:35;;;;;;;2.10;1.02;;;-4.30;99.90;;;;;;5031018;28;20052;-73
2022/02/14 05:00:02;;;;;;;1.98;1.00;;;-4.30;99.90;;;;;;5033804;28;20392;-71
2022/02/14 05:02:27;;;;;;;0.98;0.90;;;-4.20;99.90;;;;;;5031650;28;20454;-76
2022/02/14 05:04:53;;;;;;;3.30;1.00;;;-4.30;99.90;;;;;;5035026;28;20033;-73
2022/02/14 05:07:19;;;;;;;2.97;1.20;;;-4.30;99.90;;;;;;5035155;28;20021;-73
2022/02/14 05:09:44;;;;;;;1.50;1.40;;;-4.10;99.90;;;;;;5034811;28;20120;-76
2022/02/14 05:12:10;;;;;;;2.05;1.10;;;-3.90;99.90;;;;;;5035109;28;20022;-74
2022/02/14 05:14:36;;;;;;;1.15;0.82;;;-4.10;99.90;;;;;;5034763;28;20029;-73
2022/02/14 05:17:02;;;;;;;2.22;1.00;;;-4.20;99.90;;;;;;5034797;28;20114;-75
2022/02/14 05:19:28;;;;;;;2.33;1.20;;;-4.20;99.90;;;;;;5034854;28;20509;-74
2022/02/14 05:21:53;;;;;;;1.25;0.98;;;-4.20;99.90;;;;;;5016757;28;20029;-77
2022/02/14 05:24:19;;;;;;;3.45;1.55;;;-4.20;99.90;;;;;;5034645;28;20499;-76
2022/02/14 05:26:45;;;;;;;1.00;1.00;;;-4.30;99.90;;;;;;5034871;28;20026;-74
2022/02/14 05:29:11;;;;;;;1.98;1.00;;;-4.40;99.90;;;;;;5034700;28;20491;-74
2022/02/14 05:31:36;;;;;;;0.90;0.90;;;-4.40;99.90;;;;;;5034750;28;20041;-75
2022/02/14 05:34:02;;;;;;;1.35;1.00;;;-4.40;99.90;;;;;;5020683;28;20053;-74
2022/02/14 05:36:28;;;;;;;1.08;1.08;;;-4.40;99.90;;;;;;5014674;28;20404;-74
2022/02/14 05:38:54;;;;;;;1.10;1.00;;;-4.40;99.90;;;;;;5014214;28;20120;-76
2022/02/14 05:41:21;;;;;;;1.88;1.10;;;-4.40;99.90;;;;;;5014952;28;20505;-74
2022/02/14 05:43:50;;;;;;;1.05;0.93;;;-4.40;99.90;;;;;;5014073;28;20021;-75
2022/02/14 05:46:16;;;;;;;1.95;1.00;;;-4.50;99.90;;;;;;4996593;28;20112;-71
2022/02/14 05:48:47;;;;;;;1.60;0.98;;;-4.60;99.90;;;;;;5025407;28;20109;-72
2022/02/14 05:51:13;;;;;;;;;;;-4.60;99.90;;;;;;5033495;28;20037;-71
2022/02/14 05:53:39;;;;;;;1.50;1.10;;;-4.60;99.90;;;;;;5030108;28;19905;-71
2022/02/14 05:56:06;;;;;;;3.80;1.10;;;-4.60;99.90;;;;;;5021793;28;20063;-71
2022/02/14 05:58:33;;;;;;;2.63;1.10;;;-4.60;99.90;;;;;;5025822;28;20025;-71
2022/02/14 06:00:58;;;;;;;1.70;1.10;;;-4.60;99.90;;;;;;5011593;28;20435;-71
2022/02/14 06:03:24;;;;;;;1.10;1.00;;;-4.50;99.90;;;;;;5024221;28;20033;-71
2022/02/14 06:05:50;;;;;;;1.10;1.00;;;-4.50;99.90;;;;;;5012786;28;20474;-72
2022/02/14 06:08:16;;;;;;;1.20;1.20;;;-4.60;99.90;;;;;;5024125;28;20091;-70
2022/02/14 06:10:41;;;;;;;2.13;1.00;;;-4.60;99.90;;;;;;5012810;28;20038;-70
2022/02/14 06:13:08;;;;;;;1.20;1.10;;;-4.60;99.90;;;;;;5013303;28;20014;-71
2022/02/14 06:15:33;;;;;;;1.48;1.02;;;-4.60;99.90;;;;;;5021765;28;20156;-70
2022/02/14 06:17:59;;;;;;;3.55;1.30;;;-4.60;99.90;;;;;;5032651;28;20462;-70
2022/02/14 06:20:25;;;;;;;1.10;1.00;;;-4.60;99.90;;;;;;5033691;28;20654;-72
2022/02/14 06:22:51;;;;;;;2.45;1.20;;;-4.60;99.90;;;;;;5033566;28;20057;-66
2022/02/14 06:25:17;;;;;;;1.00;0.90;;;-4.60;99.90;;;;;;5033671;28;20065;-68
2022/02/14 06:27:43;;;;;;;1.23;1.13;;;-3.90;99.90;;;;;;5033632;28;20074;-68
2022/02/14 06:30:09;;;;;;;1.25;1.00;;;-2.90;99.90;;;;;;5033339;28;20025;-68
2022/02/14 06:32:34;;;;;;;1.17;1.08;;;-2.30;99.90;;;;;;5033581;28;20033;-68
2022/02/14 06:35:02;;;;;;;0.90;0.90;;;-1.40;99.90;;;;;;5033222;28;20032;-68
2022/02/14 06:37:28;;;;;;;1.83;0.90;;;-0.70;99.90;;;;;;5033179;28;20061;-69
2022/02/14 06:39:54;;;;;;;0.82;0.82;;;-0.20;99.90;;;;;;5033303;28;20112;-69
2022/02/14 06:42:20;;;;;;;1.10;1.00;;;0.10;99.90;;;;;;5033305;28;20100;-69
2022/02/14 06:44:46;;;;;;;1.83;0.80;;;0.30;99.90;;;;;;5032917;28;20032;-75
2022/02/14 06:47:12;;;;;;;1.67;0.75;;;0.20;99.90;;;;;;5015250;28;20022;-71
2022/02/14 06:49:38;;;;;;;1.42;0.70;;;-0.80;99.90;;;;;;5032946;28;20032;-73
2022/02/14 06:52:04;;;;;;;1.15;0.90;;;-1.60;99.90;;;;;;5032978;28;20061;-77
2022/02/14 06:54:30;;;;;;;2.92;0.93;;;-2.30;99.90;;;;;;5033002;28;20041;-75
2022/02/14 06:56:55;;;;;;;0.85;0.80;;;-2.70;99.90;;;;;;5032188;28;20025;-74
2022/02/14 06:59:21;;;;;;;2.50;1.08;;;-3.00;99.90;;;;;;5032870;28;20025;-75
2022/02/14 07:01:47;;;;;;;0.73;0.73;;;-3.20;99.90;;;;;;5015137;28;20021;-77
2022/02/14 07:04:13;;;;;;;2.08;0.90;;;-2.60;99.90;;;;;;5012715;28;20021;-72
2022/02/14 07:06:38;;;;;;;1.42;1.00;;;-2.90;99.90;;;;;;5009726;28;20058;-71
2022/02/14 07:09:04;;;;;;;0.77;0.77;;;-3.00;99.90;;;;;;5012712;28;20037;-70
2022/02/14 07:11:30;;;;;;;1.95;0.75;;;-3.00;99.90;;;;;;5013191;28;20056;-71
2022/02/14 07:13:56;;;;;;;1.40;0.90;;;-3.20;99.90;;;;;;4994898;28;20481;-73
2022/02/14 07:16:21;;;;;;;2.33;0.90;;;-3.30;99.90;;;;;;5013012;28;20597;-69
2022/02/14 07:18:47;;;;;;;2.00;1.27;;;-3.40;99.90;;;;;;5012551;28;20026;-71
2022/02/14 07:21:14;;;;;;;1.38;1.17;;;-3.60;99.90;;;;;;5020567;28;20444;-78
2022/02/14 07:23:40;;;;;;;2.50;1.10;;;-3.60;99.90;;;;;;5026922;28;20121;-78
2022/02/14 07:26:06;;;;;;;1.80;1.20;;;-3.70;99.90;;;;;;5027996;28;20104;-79
2022/02/14 07:28:32;;;;;;;2.50;1.00;;;-3.80;99.90;;;;;;5031404;28;20029;-78
2022/02/14 07:30:57;;;;;;;1.40;1.00;;;-3.80;99.90;;;;;;5032073;28;20064;-75
2022/02/14 07:33:23;;;;;;;3.70;1.10;;;-3.80;99.90;;;;;;5032099;28;20028;-75
2022/02/14 07:35:49;;;;;;;1.52;1.00;;;-3.80;99.90;;;;;;5032005;28;20040;-76
2022/02/14 07:38:14;;;;;;;1.50;1.10;;;-3.90;99.90;;;;;;5031872;28;20542;-70
2022/02/14 07:40:41;;;;;;;2.95;1.08;;;-3.90;99.90;;;;;;5022393;28;20495;-72
2022/02/14 07:43:07;;;;;;;2.70;1.15;;;-3.90;99.90;;;;;;5013715;28;20022;-72
2022/02/14 07:45:33;;;;;;;1.40;0.90;;;-3.90;99.90;;;;;;5015237;28;20524;-72
2022/02/14 07:47:58;;;;;;;1.60;1.02;;;-3.90;99.90;;;;;;5031335;28;20028;-73
2022/02/14 07:50:25;;;;;;;1.65;1.00;;;-3.90;99.90;;;;;;5019586;28;20030;-72
2022/02/14 07:52:52;;;;;;;1.40;1.30;;;-3.90;99.90;;;;;;5012997;28;20046;-72
2022/02/14 07:55:18;;;;;;;1.40;1.15;;;-3.90;99.90;;;;;;5008503;28;20047;-71
2022/02/14 07:57:44;;;;;;;4.47;1.50;;;-3.90;99.90;;;;;;5026098;28;20029;-72
2022/02/14 08:00:11;;;;;;;4.75;1.67;;;-4.00;99.90;;;;;;5025535;28;20030;-72
2022/02/14 08:02:38;;;;;;;3.17;1.67;;;-3.90;99.90;;;;;;5026761;28;20527;-72
2022/02/14 08:05:04;;;;;;;4.00;1.80;;;-3.90;99.90;;;;;;5031686;28;20463;-72
2022/02/14 08:07:30;;;;;;;5.70;2.20;;;-3.90;99.90;;;;;;5032051;28;20103;-71
2022/02/14 08:09:56;;;;;;;5.40;2.50;;;-3.90;99.90;;;;;;5031604;28;20029;-71
2022/02/14 08:12:22;;;;;;;6.30;2.45;;;-3.90;99.90;;;;;;5031990;28;20028;-75
2022/02/14 08:14:48;;;;;;;6.90;2.25;;;-3.90;99.90;;;;;;5013264;28;20022;-73
2022/02/14 08:17:14;;;;;;;6.07;2.05;;;-3.90;99.90;;;;;;5031061;28;20026;-72
2022/02/14 08:19:41;;;;;;;7.40;2.17;;;-3.90;99.90;;;;;;5031886;28;20443;-73
2022/02/14 08:22:07;;;;;;;7.53;2.28;;;-3.90;99.90;;;;;;5031630;28;20034;-72
2022/02/14 08:24:33;;;;;;;4.95;1.63;;;-3.90;99.90;;;;;;5031814;28;20512;-69
2022/02/14 08:26:59;;;;;;;5.22;1.95;;;-2.10;99.90;;;;;;5031403;28;20104;-68
2022/02/14 08:29:26;;;;;;;7.18;2.90;;;-1.00;99.90;;;;;;5013558;28;20612;-70
2022/02/14 08:31:52;;;;;;;5.07;2.78;;;-1.30;99.90;;;;;;5031418;28;20025;-71
2022/02/14 08:34:18;;;;;;;1.80;1.50;;;-1.80;99.90;;;;;;5033238;28;20075;-72
2022/02/14 08:36:44;;;;;;;3.47;1.15;;;-2.00;99.90;;;;;;5035331;28;20051;-71
2022/02/14 08:39:10;;;;;;;2.95;1.50;;;-2.40;99.90;;;;;;5035054;28;20151;-71
2022/02/14 08:41:37;;;;;;;3.45;1.13;;;-2.80;99.90;;;;;;5035503;28;20030;-71
2022/02/14 08:44:02;;;;;;;3.83;1.13;;;-3.00;99.90;;;;;;5035329;28;20030;-71
2022/02/14 08:46:28;;;;;;;2.67;1.40;;;-3.10;99.90;;;;;;5034605;28;20025;-72
2022/02/14 08:48:54;;;;;;;1.50;0.90;;;-3.20;99.90;;;;;;5014251;28;20552;-71
2022/02/14 08:51:21;;;;;;;2.17;1.15;;;-2.40;99.90;;;;;;5035206;28;20120;-71
2022/02/14 08:53:48;;;;;;;2.35;1.10;;;-2.20;99.90;;;;;;5035412;28;20075;-70
2022/02/14 08:56:15;;;;;;;1.98;0.98;;;-2.40;99.90;;;;;;5034776;28;20036;-71
2022/02/14 08:58:41;;;;;;;1.10;1.00;;;-2.70;99.90;;;;;;5035118;28;20026;-71
2022/02/14 09:01:08;;;;;;;1.50;1.10;;;-2.80;99.90;;;;;;5035013;28;20051;-71
2022/02/14 09:03:35;;;;;;;1.23;1.02;;;-2.90;99.90;;;;;;5017271;28;20399;-71
2022/02/14 09:06:01;;;;;;;5.60;1.00;;;-3.00;99.90;;;;;;5034830;28;20025;-71
2022/02/14 09:08:28;;;;;;;4.15;1.00;;;-3.10;99.90;;;;;;5034916;28;20041;-70
2022/02/14 09:10:56;;;;;;;2.53;1.20;;;-3.10;99.90;;;;;;5034696;28;20068;-72
2022/02/14 09:13:22;;;;;;;4.03;1.10;;;-3.10;99.90;;;;;;5035111;28;20387;-71
2022/02/14 09:15:48;;;;;;;0.98;0.80;;;-3.20;99.90;;;;;;5034776;28;20112;-71
2022/02/14 09:18:15;;;;;;;1.95;1.10;;;-3.20;99.90;;;;;;5034229;28;20029;-71
2022/02/14 09:20:41;;;;;;;3.30;1.20;;;-3.20;99.90;;;;;;5034742;28;20022;-71
2022/02/14 09:23:07;;;;;;;1.02;0.95;;;-3.30;99.90;;;;;;5017127;28;20120;-72
2022/02/14 09:25:34;;;;;;;3.85;1.10;;;-3.20;99.90;;;;;;5033864;28;20384;-71
2022/02/14 09:28:01;;;;;;;3.72;1.20;;;-3.20;99.90;;;;;;5034699;28;20110;-72
2022/02/14 09:30:27;;;;;;;1.85;1.20;;;-3.20;99.90;;;;;;5034747;28;20063;-73
2022/02/14 09:32:53;;;;;;;4.57;1.23;;;-3.20;99.90;;;;;;5034575;28;20017;-71
2022/02/14 09:35:26;;;;;;;2.28;0.95;;;-3.20;99.90;;;;;;5034461;28;20084;-71
2022/02/14 09:38:00;;;;;;;5.40;1.10;;;-3.20;99.90;;;;;;5034229;28;20053;-71
2022/02/14 09:40:28;;;;;;;3.00;2.10;;;-3.20;99.90;;;;;;5031214;28;20036;-72
2022/02/14 09:42:55;;;;;;;12.02;6.68;;;-3.30;99.90;;;;;;5034322;28;20030;-72
2022/02/14 09:45:25;;;;;;;8.63;4.00;;;-3.30;99.90;;;;;;5032980;28;20021;-72
2022/02/14 09:48:03;;;;;;;7.25;2.75;;;-3.40;99.90;;;;;;5029291;28;20444;-72
2022/02/14 09:50:30;;;;;;;4.95;2.25;;;-3.30;99.90;;;;;;5034050;28;20112;-72
2022/02/14 09:52:57;;;;;;;2.72;1.17;;;-3.30;99.90;;;;;;5033917;28;20034;-71
2022/02/14 09:55:23;;;;;;;2.97;1.42;;;-3.20;99.90;;;;;;5034031;28;20087;-71
2022/02/14 09:57:49;;;;;;;2.13;1.33;;;-3.20;99.90;;;;;;5034141;28;20030;-71
2022/02/14 10:00:15;;;;;;;2.33;1.10;;;-3.20;99.90;;;;;;5033776;28;20055;-72
2022/02/14 10:02:41;;;;;;;1.38;1.10;;;-3.20;99.90;;;;;;5033818;28;20516;-71
2022/02/14 10:05:12;;;;;;;5.53;1.67;;;-3.20;99.90;;;;;;5015826;28;20064;-71
2022/02/14 10:07:46;;;;;;;1.63;1.13;;;-3.20;99.90;;;;;;5033773;28;20071;-71
2022/02/14 10:10:12;;;;;;;1.38;0.95;;;-3.20;99.90;;;;;;5033400;28;20503;-72
2022/02/14 10:12:43;;;;;;;5.60;1.10;;;-3.20;99.90;;;;;;5033846;28;20022;-72
2022/02/14 10:15:10;;;;;;;3.47;1.50;;;-3.10;99.90;;;;;;5033493;28;20049;-70
2022/02/14 10:17:42;;;;;;;3.65;2.13;;;-3.00;99.90;;;;;;5033514;28;20087;-72
2022/02/14 10:20:09;;;;;;;2.90;2.03;;;-1.80;99.90;;;;;;5033381;28;20036;-68
2022/02/14 10:22:56;;;;;;;0.95;0.90;;;-1.60;99.90;;;;;;5015756;28;20087;-72
2022/02/14 10:25:37;;;;;;;4.43;1.15;;;0.30;99.90;;;;;;5033507;28;20062;-72
2022/02/14 10:28:13;;;;;;;1.60;1.10;;;3.70;99.90;;;;;;5029697;28;20033;-71
2022/02/14 10:31:06;;;;;;;3.08;1.25;;;3.00;99.90;;;;;;5014834;28;20037;-72
2022/02/14 10:33:46;;;;;;;6.70;1.17;;;1.60;99.90;;;;;;5033878;28;20030;-72
2022/02/14 10:36:12;;;;;;;2.08;1.02;;;0.60;99.90;;;;;;5032889;28;20061;-72
2022/02/14 10:38:38;;;;;;;5.22;1.23;;;0.00;99.90;;;;;;5032484;28;20167;-72
2022/02/14 10:41:11;;;;;;;4.63;1.10;;;-0.10;99.90;;;;;;5033041;28;20033;-75
2022/02/14 10:43:36;;;;;;;3.08;1.17;;;0.60;99.90;;;;;;5033151;28;20026;-74
2022/02/14 10:46:02;;;;;;;4.50;1.17;;;0.90;99.90;;;;;;5032755;28;20745;-70
2022/02/14 10:48:37;;;;;;;2.67;0.90;;;0.30;99.90;;;;;;5033224;28;20021;-70
2022/02/14 10:51:03;;;;;;;2.55;0.77;;;-0.40;99.90;;;;;;5032852;28;20483;-69
2022/02/14 10:53:29;;;;;;;2.55;0.75;;;-0.80;99.90;;;;;;5031761;28;20025;-70
2022/02/14 10:55:56;;;;;;;3.00;0.98;;;-1.10;99.90;;;;;;5031800;28;20550;-70
2022/02/14 10:58:29;;;;;;;2.97;0.85;;;-1.30;99.90;;;;;;5031587;28;20021;-69
2022/02/14 11:00:57;;;;;;;3.03;1.10;;;-1.10;99.90;;;;;;5032248;28;20032;-73
2022/02/14 11:03:23;;;;;;;1.50;0.70;;;-1.20;99.90;;;;;;5032554;28;20044;-72
2022/02/14 11:05:52;;;;;;;1.95;0.90;;;-1.40;99.90;;;;;;5026255;28;20032;-71
2022/02/14 11:08:21;;;;;;;3.13;0.90;;;-1.60;99.90;;;;;;5014168;28;20033;-72
2022/02/14 11:10:49;;;;;;;2.47;0.90;;;-1.70;99.90;;;;;;5021814;28;20052;-73
2022/02/14 11:13:17;;;;;;;1.75;0.85;;;-1.90;99.90;;;;;;5032863;28;20056;-71
2022/02/14 11:15:43;;;;;;;3.30;1.10;;;-2.00;99.90;;;;;;5032518;28;20062;-71
2022/02/14 11:18:17;;;;;;;2.75;0.98;;;-2.10;99.90;;;;;;5013830;28;20029;-74
2022/02/14 11:20:45;;;;;;;2.58;1.20;;;-2.20;99.90;;;;;;5026971;28;20026;-80
2022/02/14 11:23:14;;;;;;;1.70;1.00;;;-2.20;99.90;;;;;;5014767;28;20088;-74
2022/02/14 11:26:03;;;;;;;1.90;0.95;;;-2.30;99.90;;;;;;5019750;28;20038;-75
2022/02/14 11:28:54;;;;;;;3.38;1.00;;;-2.30;99.90;;;;;;5014832;28;20030;-74
2022/02/14 11:31:27;;;;;;;5.75;1.13;;;-2.30;99.90;;;;;;4973552;28;20081;-75
2022/02/14 11:33:55;;;;;;;2.33;0.85;;;-2.40;99.90;;;;;;5015546;28;20026;-75
2022/02/14 11:36:22;;;;;;;3.75;1.27;;;-2.40;99.90;;;;;;5024966;28;20032;-77
2022/02/14 11:38:51;;;;;;;2.10;1.08;;;-2.40;99.90;;;;;;5016450;28;20045;-77
2022/02/14 11:41:41;;;;;;;4.93;0.98;;;-2.40;99.90;;;;;;5030909;28;20016;-79
2022/02/14 11:44:14;;;;;;;2.40;1.17;;;-2.40;99.90;;;;;;5025669;28;20096;-78
2022/02/14 11:46:53;;;;;;;1.42;0.95;;;-2.40;99.90;;;;;;5023238;28;20022;-76
2022/02/14 11:49:21;;;;;;;2.22;0.93;;;-2.50;99.90;;;;;;5028439;28;20121;-73
2022/02/14 11:51:58;;;;;;;1.73;0.88;;;-2.50;99.90;;;;;;5020932;28;20053;-76
2022/02/14 11:54:45;;;;;;;4.45;1.08;;;-2.50;99.90;;;;;;5010777;28;20021;-75
2022/02/14 11:57:17;;;;;;;1.58;1.00;;;-2.50;99.90;;;;;;5030696;28;20388;-73
2022/02/14 11:59:44;;;;;;;4.07;1.40;;;-2.40;99.90;;;;;;5012602;28;20113;-74
2022/02/14 12:02:11;;;;;;;1.20;1.00;;;-2.40;99.90;;;;;;5029723;28;20020;-75
2022/02/14 12:04:42;;;;;;;3.47;1.20;;;-2.40;99.90;;;;;;5024166;28;20046;-75
2022/02/14 12:07:23;;;;;;;4.70;1.17;;;-2.10;99.90;;;;;;5024950;28;20029;-74
2022/02/14 12:09:58;;;;;;;1.10;1.00;;;-2.10;99.90;;;;;;5016716;28;20083;-74
2022/02/14 12:12:39;;;;;;;3.92;1.30;;;-2.20;99.90;;;;;;5011872;28;20029;-73
2022/02/14 12:21:02;;;;;;;9.63;4.50;;;-2.50;99.90;;;;;;5030777;28;20100;-73
2022/02/14 12:23:44;;;;;;;4.25;1.77;;;-2.50;99.90;;;;;;5028116;28;20248;-73
2022/02/14 12:26:23;;;;;;;3.00;2.05;;;-2.50;99.90;;;;;;5021770;28;20091;-73
2022/02/14 12:31:40;;;;;;;6.47;1.10;;;-2.50;99.90;;;;;;5025437;28;20512;-73
2022/02/14 12:34:06;;;;;;;2.95;1.20;;;-2.50;99.90;;;;;;5027844;28;20014;-73
2022/02/14 12:36:31;;;;;;;3.42;1.52;;;-2.50;99.90;;;;;;5028393;28;20083;-73
2022/02/14 12:38:57;;;;;;;2.75;1.30;;;-2.50;99.90;;;;;;5029553;28;20133;-73
2022/02/14 12:41:23;;;;;;;2.85;1.10;;;-2.50;99.90;;;;;;5027523;28;20010;-74
2022/02/14 12:43:52;;;;;;;2.38;1.00;;;-2.50;99.90;;;;;;5012910;28;20060;-74
2022/02/14 12:46:19;;;;;;;3.40;1.48;;;-2.50;99.90;;;;;;5030784;28;20049;-72
2022/02/14 12:48:49;;;;;;;4.90;1.52;;;-2.60;99.90;;;;;;5013663;28;20471;-74
2022/02/14 12:51:29;;;;;;;4.50;1.40;;;-2.40;99.90;;;;;;5031151;28;20033;-74
2022/02/14 12:54:00;;;;;;;3.28;1.30;;;-2.40;99.90;;;;;;5031682;28;20033;-74
2022/02/14 12:56:31;;;;;;;2.03;1.10;;;-2.50;99.90;;;;;;5030820;28;20040;-74
2022/02/14 12:59:01;;;;;;;1.70;1.48;;;-2.60;99.90;;;;;;5031365;28;20022;-75
2022/02/14 13:01:29;;;;;;;4.15;2.03;;;-2.60;99.90;;;;;;5013357;28;20388;-71
2022/02/14 13:04:06;;;;;;;2.92;1.35;;;-2.50;99.90;;;;;;5021047;28;20049;-74
2022/02/14 13:06:49;;;;;;;2.88;1.15;;;-2.00;99.90;;;;;;5011395;28;20022;-74
2022/02/14 13:09:25;;;;;;;2.65;1.50;;;-2.00;99.90;;;;;;5027237;28;20018;-75
2022/02/14 13:11:57;;;;;;;1.20;0.82;;;-2.10;99.90;;;;;;5018783;28;20384;-75
2022/02/14 13:14:45;;;;;;;2.72;1.13;;;-2.30;99.90;;;;;;5023969;28;20025;-74
2022/02/14 13:17:26;;;;;;;2.40;1.25;;;-2.40;99.90;;;;;;5028172;28;20036;-74
2022/02/14 13:19:54;;;;;;;3.38;1.08;;;-2.50;99.90;;;;;;5022393;28;20499;-75
2022/02/14 13:22:27;;;;;;;1.60;1.05;;;-2.60;99.90;;;;;;5022313;28;20030;-74
2022/02/14 13:24:56;;;;;;;3.33;1.42;;;-2.60;99.90;;;;;;5030600;28;20013;-75
2022/02/14 13:27:32;;;;;;;3.45;0.90;;;-2.70;99.90;;;;;;5018314;28;20417;-75
2022/02/14 13:30:08;;;;;;;4.05;1.30;;;-2.70;99.90;;;;;;5027758;28;20030;-70
2022/02/14 13:32:37;;;;;;;2.83;0.75;;;-2.90;99.90;;;;;;5029770;28;20029;-72
2022/02/14 13:35:09;;;;;;;1.05;0.80;;;-2.90;99.90;;;;;;5017305;28;20041;-68
2022/02/14 13:37:51;;;;;;;3.83;1.35;;;-2.70;99.90;;;;;;5034119;28;20131;-76
2022/02/14 13:40:31;;;;;;;4.38;1.00;;;0.20;99.90;;;;;;5034306;28;20116;-76
2022/02/14 13:43:06;;;;;;;2.55;1.30;;;0.00;99.90;;;;;;5016798;28;20026;-76
2022/02/14 13:45:55;;;;;;;0.90;0.90;;;-0.70;99.90;;;;;;5034190;28;20401;-72
2022/02/14 13:48:29;;;;;;;2.20;1.13;;;-1.50;99.90;;;;;;5034274;28;20053;-72
2022/02/14 13:51:00;;;;;;;2.78;1.02;;;-2.00;99.90;;;;;;5034181;28;20064;-73
2022/02/14 13:53:38;;;;;;;2.40;1.27;;;-2.10;99.90;;;;;;5034236;28;20388;-72
2022/02/14 13:56:15;;;;;;;5.05;0.93;;;-2.20;99.90;;;;;;5034020;28;20059;-72
2022/02/14 13:58:46;;;;;;;1.20;1.02;;;-2.30;99.90;;;;;;5034341;28;20025;-72
2022/02/14 14:01:35;;;;;;;1.55;1.20;;;-2.40;99.90;;;;;;5034174;28;20039;-72
2022/02/14 14:04:22;;;;;;;2.75;1.13;;;-2.40;99.90;;;;;;5034197;28;20029;-73
2022/02/14 14:06:52;;;;;;;2.63;1.30;;;-2.40;99.90;;;;;;5033990;28;20022;-72